createdAt,value
2018-10-18T00:00:40.437Z,24.20
2018-10-18T00:01:40.247Z,25.90
2018-10-18T00:02:40.287Z,25.40
2018-10-18T00:03:40.333Z,27.00
2018-10-18T00:04:40.363Z,26.00
2018-10-18T00:05:40.404Z,27.20
2018-10-18T00:06:40.442Z,29.00
2018-10-18T00:07:40.480Z,36.90
2018-10-18T00:08:40.520Z,38.90
2018-10-18T00:09:40.560Z,33.20
2018-10-18T00:10:40.598Z,37.20
2018-10-18T00:11:40.641Z,40.60
2018-10-18T00:12:40.679Z,43.20
2018-10-18T00:13:40.717Z,43.00
2018-10-18T00:14:40.755Z,40.60
2018-10-18T00:15:40.797Z,38.80
2018-10-18T00:16:40.847Z,42.80
2018-10-18T00:17:40.873Z,36.00
2018-10-18T00:18:40.913Z,36.70
2018-10-18T00:19:40.952Z,36.50
2018-10-18T00:20:40.991Z,32.40
2018-10-18T00:21:41.030Z,35.60
2018-10-18T00:22:41.070Z,39.50
2018-10-18T00:23:41.116Z,41.20
2018-10-18T00:24:41.157Z,46.20
2018-10-18T00:25:41.186Z,45.80
2018-10-18T00:26:41.224Z,44.60
2018-10-18T00:27:41.263Z,55.90
2018-10-18T00:28:41.305Z,47.90
2018-10-18T00:29:41.343Z,53.20
2018-10-18T00:30:41.383Z,52.70
2018-10-18T00:31:41.419Z,50.20
2018-10-18T00:32:41.459Z,44.70
2018-10-18T00:33:41.498Z,45.90
2018-10-18T00:34:41.537Z,50.40
2018-10-18T00:35:41.581Z,47.40
2018-10-18T00:36:41.621Z,63.70
2018-10-18T00:37:41.654Z,59.30
2018-10-18T00:38:41.695Z,58.80
2018-10-18T00:39:41.731Z,57.50
2018-10-18T00:40:41.771Z,62.20
2018-10-18T00:41:41.811Z,62.40
2018-10-18T00:42:41.855Z,73.50
2018-10-18T00:43:41.889Z,67.30
2018-10-18T00:44:41.930Z,51.40
2018-10-18T00:45:41.968Z,59.50
2018-10-18T00:46:42.008Z,57.10
2018-10-18T00:47:42.044Z,68.00
2018-10-18T00:48:42.091Z,74.90
2018-10-18T00:49:42.124Z,68.20
2018-10-18T00:50:42.163Z,57.40
2018-10-18T00:51:42.203Z,72.20
2018-10-18T00:52:42.241Z,60.00
2018-10-18T00:53:42.280Z,72.20
2018-10-18T00:54:42.319Z,66.30
2018-10-18T00:55:42.356Z,89.30
2018-10-18T00:56:42.400Z,91.60
2018-10-18T00:57:42.437Z,84.40
2018-10-18T00:58:42.575Z,134.00
2018-10-18T00:59:42.513Z,76.00
2018-10-18T01:00:42.554Z,96.70
2018-10-18T01:01:42.591Z,127.60
2018-10-18T01:02:42.633Z,84.70
2018-10-18T01:03:42.669Z,106.90
2018-10-18T01:04:42.709Z,116.20
2018-10-18T01:05:42.751Z,96.90
2018-10-18T01:06:42.789Z,113.50
2018-10-18T01:07:42.827Z,108.10
2018-10-18T01:08:42.867Z,101.20
2018-10-18T01:09:42.909Z,166.90
2018-10-18T01:10:42.948Z,124.70
2018-10-18T01:11:42.985Z,155.20
2018-10-18T01:12:43.093Z,178.40
2018-10-18T01:13:43.064Z,239.30
2018-10-18T01:14:43.103Z,241.50
2018-10-18T01:15:43.140Z,189.40
2018-10-18T01:16:43.185Z,277.00
2018-10-18T01:17:43.222Z,304.80
2018-10-18T01:18:43.262Z,155.50
2018-10-18T01:19:43.308Z,139.10
2018-10-18T01:20:43.338Z,275.00
2018-10-18T01:21:43.379Z,249.30
2018-10-18T01:22:43.417Z,224.10
2018-10-18T01:23:43.464Z,215.00
2018-10-18T01:24:43.502Z,151.70
2018-10-18T01:25:43.538Z,133.00
2018-10-18T01:26:43.576Z,226.20
2018-10-18T01:27:43.618Z,354.30
2018-10-18T01:28:43.656Z,201.60
2018-10-18T01:29:43.744Z,243.10
2018-10-18T01:30:43.734Z,189.00
2018-10-18T01:31:43.771Z,190.60
2018-10-18T01:32:43.828Z,172.40
2018-10-18T01:33:43.850Z,184.10
2018-10-18T01:34:43.897Z,162.90
2018-10-18T01:35:43.932Z,220.80
2018-10-18T01:36:43.968Z,249.20
2018-10-18T01:37:44.007Z,226.80
2018-10-18T01:38:44.046Z,245.80
2018-10-18T01:39:44.085Z,188.40
2018-10-18T01:40:44.123Z,244.40
2018-10-18T01:41:44.166Z,196.30
2018-10-18T01:42:44.206Z,228.40
2018-10-18T01:43:44.242Z,173.50
2018-10-18T01:44:44.283Z,122.60
2018-10-18T01:45:44.323Z,149.30
2018-10-18T01:46:44.364Z,190.90
2018-10-18T01:47:44.400Z,261.70
2018-10-18T01:48:44.439Z,275.50
2018-10-18T01:49:44.483Z,305.10
2018-10-18T01:50:44.517Z,259.80
2018-10-18T01:51:44.566Z,127.70
2018-10-18T01:52:44.598Z,378.40
2018-10-18T01:53:44.639Z,190.00
2018-10-18T01:54:44.675Z,300.60
2018-10-18T01:55:44.716Z,267.00
2018-10-18T01:56:44.756Z,178.40
2018-10-18T01:57:44.793Z,211.80
2018-10-18T01:58:44.831Z,227.20
2018-10-18T01:59:44.874Z,278.20
2018-10-18T02:00:44.910Z,267.80
2018-10-18T02:01:44.950Z,297.70
2018-10-18T02:02:44.988Z,250.30
2018-10-18T02:03:45.026Z,221.60
2018-10-18T02:04:45.066Z,274.40
2018-10-18T02:05:45.104Z,225.20
2018-10-18T02:06:45.145Z,286.00
2018-10-18T02:07:45.191Z,279.10
2018-10-18T02:08:45.232Z,234.60
2018-10-18T02:09:45.266Z,291.50
2018-10-18T02:10:45.302Z,258.80
2018-10-18T02:11:45.340Z,149.80
2018-10-18T02:12:45.378Z,103.50
2018-10-18T02:13:45.502Z,107.10
2018-10-18T02:14:45.461Z,161.00
2018-10-18T02:15:45.497Z,190.30
2018-10-18T02:16:45.585Z,216.20
2018-10-18T02:17:45.578Z,332.20
2018-10-18T02:18:45.615Z,334.90
2018-10-18T02:19:45.655Z,158.20
2018-10-18T02:20:45.692Z,307.70
2018-10-18T02:21:45.734Z,318.50
2018-10-18T02:22:45.773Z,257.20
2018-10-18T02:23:45.811Z,161.00
2018-10-18T02:24:45.890Z,121.10
2018-10-18T02:25:45.889Z,152.00
2018-10-18T02:26:45.930Z,159.90
2018-10-18T02:27:45.968Z,130.50
2018-10-18T02:28:46.008Z,207.70
2018-10-18T02:29:46.048Z,184.50
2018-10-18T02:30:46.087Z,194.10
2018-10-18T02:31:46.126Z,369.50
2018-10-18T02:32:46.164Z,337.40
2018-10-18T02:33:46.203Z,286.40
2018-10-18T02:34:46.243Z,281.60
2018-10-18T02:35:46.281Z,344.30
2018-10-18T02:36:46.339Z,139.10
2018-10-18T02:37:46.361Z,321.60
2018-10-18T02:38:46.400Z,172.20
2018-10-18T02:39:46.438Z,138.00
2018-10-18T02:40:46.476Z,233.60
2018-10-18T02:41:46.525Z,370.70
2018-10-18T02:42:46.558Z,204.80
2018-10-18T02:43:46.596Z,232.90
2018-10-18T02:44:46.634Z,175.10
2018-10-18T02:45:46.674Z,218.70
2018-10-18T02:46:46.715Z,161.70
2018-10-18T02:47:46.754Z,199.30
2018-10-18T02:48:46.792Z,160.40
2018-10-18T02:49:46.831Z,165.90
2018-10-18T02:50:46.872Z,143.80
2018-10-18T02:51:46.910Z,184.60
2018-10-18T02:52:46.950Z,169.70
2018-10-18T02:53:46.989Z,174.70
2018-10-18T02:54:47.028Z,201.80
2018-10-18T02:55:47.074Z,355.20
2018-10-18T02:56:47.105Z,176.20
2018-10-18T02:57:47.146Z,260.50
2018-10-18T02:58:47.192Z,269.50
2018-10-18T02:59:47.284Z,161.50
2018-10-18T03:00:47.262Z,314.20
2018-10-18T03:01:47.302Z,254.60
2018-10-18T03:02:47.342Z,280.00
2018-10-18T03:03:47.380Z,287.70
2018-10-18T03:04:47.420Z,153.40
2018-10-18T03:05:47.460Z,248.30
2018-10-18T03:06:47.499Z,300.80
2018-10-18T03:07:47.542Z,226.30
2018-10-18T03:08:47.579Z,210.20
2018-10-18T03:09:47.617Z,144.60
2018-10-18T03:10:47.656Z,181.00
2018-10-18T03:11:47.695Z,100.40
2018-10-18T03:12:47.735Z,71.00
2018-10-18T03:13:47.776Z,134.60
2018-10-18T03:14:47.820Z,230.30
2018-10-18T03:15:47.872Z,127.20
2018-10-18T03:16:47.891Z,155.90
2018-10-18T03:17:47.931Z,98.20
2018-10-18T03:18:47.972Z,209.90
2018-10-18T03:19:48.009Z,120.30
2018-10-18T03:20:48.056Z,236.80
2018-10-18T03:21:48.089Z,175.20
2018-10-18T03:22:48.127Z,154.70
2018-10-18T03:23:48.176Z,93.20
2018-10-18T03:24:48.209Z,99.90
2018-10-18T03:25:48.246Z,196.70
2018-10-18T03:26:48.288Z,162.70
2018-10-18T03:27:48.329Z,146.80
2018-10-18T03:28:48.364Z,140.60
2018-10-18T03:29:48.405Z,126.30
2018-10-18T03:30:48.442Z,87.00
2018-10-18T03:31:48.482Z,144.50
2018-10-18T03:32:48.528Z,98.40
2018-10-18T03:33:48.562Z,144.50
2018-10-18T03:34:48.601Z,156.10
2018-10-18T03:35:48.638Z,147.90
2018-10-18T03:36:48.678Z,112.30
2018-10-18T03:37:48.719Z,167.10
2018-10-18T03:38:48.757Z,108.80
2018-10-18T03:39:48.796Z,137.40
2018-10-18T03:40:48.837Z,137.40
2018-10-18T03:41:48.876Z,126.20
2018-10-18T03:42:48.914Z,144.10
2018-10-18T03:43:48.958Z,115.60
2018-10-18T03:44:48.993Z,104.00
2018-10-18T03:45:49.034Z,129.50
2018-10-18T03:46:49.073Z,115.80
2018-10-18T03:47:49.112Z,123.00
2018-10-18T03:48:49.151Z,138.70
2018-10-18T03:49:49.192Z,124.70
2018-10-18T03:50:49.231Z,99.90
2018-10-18T03:51:49.270Z,108.50
2018-10-18T03:52:49.312Z,102.00
2018-10-18T03:53:49.349Z,124.20
2018-10-18T03:54:49.397Z,149.40
2018-10-18T03:55:49.427Z,127.70
2018-10-18T03:56:49.469Z,141.10
2018-10-18T03:57:49.507Z,128.50
2018-10-18T03:58:49.548Z,138.50
2018-10-18T03:59:49.667Z,154.40
2018-10-18T04:00:49.625Z,118.20
2018-10-18T04:01:49.670Z,134.80
2018-10-18T04:02:49.709Z,136.00
2018-10-18T04:03:49.760Z,147.00
2018-10-18T04:04:49.789Z,121.90
2018-10-18T04:05:49.821Z,102.20
2018-10-18T04:06:49.865Z,124.40
2018-10-18T04:07:49.901Z,118.60
2018-10-18T04:08:49.951Z,108.40
2018-10-18T04:09:49.981Z,137.10
2018-10-18T04:10:50.022Z,131.90
2018-10-18T04:11:50.058Z,96.80
2018-10-18T04:12:50.123Z,105.20
2018-10-18T04:13:50.143Z,138.30
2018-10-18T04:14:50.179Z,118.30
2018-10-18T04:15:50.217Z,94.00
2018-10-18T04:16:50.255Z,132.30
2018-10-18T04:17:50.327Z,97.10
2018-10-18T04:18:50.340Z,84.20
2018-10-18T04:19:50.375Z,106.80
2018-10-18T04:20:50.414Z,128.20
2018-10-18T04:21:50.462Z,140.60
2018-10-18T04:22:50.496Z,95.10
2018-10-18T04:23:50.532Z,92.00
2018-10-18T04:24:50.572Z,123.70
2018-10-18T04:25:50.613Z,113.70
2018-10-18T04:26:50.653Z,112.50
2018-10-18T04:27:50.698Z,141.40
2018-10-18T04:28:50.736Z,156.40
2018-10-18T04:29:50.770Z,153.00
2018-10-18T04:30:50.808Z,166.40
2018-10-18T04:31:50.847Z,129.30
2018-10-18T04:32:50.887Z,149.60
2018-10-18T04:33:50.927Z,131.30
2018-10-18T04:34:50.969Z,113.30
2018-10-18T04:35:51.003Z,174.00
2018-10-18T04:36:51.047Z,109.40
2018-10-18T04:37:51.083Z,124.80
2018-10-18T04:38:51.123Z,160.60
2018-10-18T04:39:51.162Z,118.70
2018-10-18T04:40:51.201Z,211.00
2018-10-18T04:41:51.256Z,167.80
2018-10-18T04:42:51.281Z,147.10
2018-10-18T04:43:51.324Z,130.40
2018-10-18T04:44:51.359Z,133.00
2018-10-18T04:45:51.399Z,118.60
2018-10-18T04:46:51.438Z,146.00
2018-10-18T04:47:51.570Z,110.60
2018-10-18T04:48:51.575Z,142.00
2018-10-18T04:49:51.556Z,214.70
2018-10-18T04:50:51.595Z,125.20
2018-10-18T04:51:51.638Z,148.00
2018-10-18T04:52:51.674Z,134.20
2018-10-18T04:53:51.713Z,166.70
2018-10-18T04:54:51.776Z,134.90
2018-10-18T04:55:51.792Z,175.60
2018-10-18T04:56:51.883Z,135.80
2018-10-18T04:57:51.872Z,145.00
2018-10-18T04:58:51.914Z,199.70
2018-10-18T04:59:51.950Z,229.50
2018-10-18T05:00:52.032Z,152.30
2018-10-18T05:01:52.028Z,137.20
2018-10-18T05:02:52.122Z,112.70
2018-10-18T05:03:52.106Z,96.10
2018-10-18T05:04:52.167Z,156.70
2018-10-18T05:05:52.185Z,208.80
2018-10-18T05:06:52.321Z,158.50
2018-10-18T05:07:52.265Z,130.80
2018-10-18T05:08:52.306Z,94.10
2018-10-18T05:09:52.483Z,87.10
2018-10-18T05:10:52.385Z,194.40
2018-10-18T05:11:52.421Z,160.70
2018-10-18T05:12:52.516Z,178.10
2018-10-18T05:13:52.509Z,105.10
2018-10-18T05:14:52.549Z,134.90
2018-10-18T05:15:52.576Z,183.30
2018-10-18T05:16:52.623Z,114.50
2018-10-18T05:17:52.656Z,140.60
2018-10-18T05:18:52.743Z,127.30
2018-10-18T05:19:52.735Z,118.70
2018-10-18T05:20:52.774Z,169.60
2018-10-18T05:21:52.814Z,115.80
2018-10-18T05:22:52.854Z,121.50
2018-10-18T05:23:52.891Z,118.50
2018-10-18T05:24:52.936Z,112.70
2018-10-18T05:25:52.973Z,119.10
2018-10-18T05:26:53.013Z,149.30
2018-10-18T05:27:53.104Z,118.60
2018-10-18T05:28:53.090Z,142.50
2018-10-18T05:29:53.129Z,141.80
2018-10-18T05:30:53.221Z,212.30
2018-10-18T05:31:53.209Z,108.50
2018-10-18T05:32:53.248Z,156.50
2018-10-18T05:33:53.286Z,99.10
2018-10-18T05:34:53.327Z,108.70
2018-10-18T05:35:53.404Z,75.80
2018-10-18T05:36:53.446Z,110.20
2018-10-18T05:37:53.562Z,221.20
2018-10-18T05:38:53.483Z,131.50
2018-10-18T05:39:53.522Z,114.10
2018-10-18T05:40:53.561Z,162.50
2018-10-18T05:41:53.601Z,138.40
2018-10-18T05:42:53.653Z,124.00
2018-10-18T05:43:53.680Z,177.30
2018-10-18T05:44:53.722Z,165.40
2018-10-18T05:45:53.761Z,154.10
2018-10-18T05:46:53.854Z,157.60
2018-10-18T05:47:53.839Z,128.60
2018-10-18T05:48:53.930Z,199.40
2018-10-18T05:49:53.917Z,193.50
2018-10-18T05:50:53.961Z,163.10
2018-10-18T05:51:53.996Z,238.10
2018-10-18T05:52:54.059Z,176.30
2018-10-18T05:53:54.289Z,163.20
2018-10-18T05:54:54.129Z,179.90
2018-10-18T05:55:54.154Z,208.20
2018-10-18T05:56:54.197Z,355.70
2018-10-18T05:57:54.238Z,253.70
2018-10-18T05:58:54.277Z,168.30
2018-10-18T05:59:54.315Z,155.80
2018-10-18T06:00:54.363Z,135.90
2018-10-18T06:01:54.391Z,151.00
2018-10-18T06:02:54.435Z,147.30
2018-10-18T06:03:54.475Z,177.50
2018-10-18T06:04:54.511Z,164.20
2018-10-18T06:05:54.549Z,180.30
2018-10-18T06:06:54.591Z,207.60
2018-10-18T06:07:54.626Z,109.80
2018-10-18T06:08:54.668Z,220.00
2018-10-18T06:09:54.771Z,152.30
2018-10-18T06:10:54.744Z,204.70
2018-10-18T06:11:54.784Z,200.40
2018-10-18T06:12:54.865Z,164.50
2018-10-18T06:13:54.865Z,201.40
2018-10-18T06:14:54.900Z,219.20
2018-10-18T06:15:54.939Z,184.20
2018-10-18T06:16:54.980Z,209.20
2018-10-18T06:17:55.018Z,144.60
2018-10-18T06:18:55.079Z,203.60
2018-10-18T06:19:55.095Z,153.60
2018-10-18T06:20:55.137Z,194.70
2018-10-18T06:21:55.176Z,148.70
2018-10-18T06:22:55.223Z,170.30
2018-10-18T06:23:55.251Z,203.10
2018-10-18T06:24:55.312Z,154.90
2018-10-18T06:25:55.330Z,188.10
2018-10-18T06:26:55.372Z,170.80
2018-10-18T06:27:55.408Z,166.40
2018-10-18T06:28:55.524Z,228.90
2018-10-18T06:29:55.488Z,201.10
2018-10-18T06:30:55.591Z,193.20
2018-10-18T06:31:55.566Z,83.30
2018-10-18T06:32:55.623Z,144.90
2018-10-18T06:33:55.652Z,341.30
2018-10-18T06:34:55.696Z,204.30
2018-10-18T06:35:55.725Z,178.30
2018-10-18T06:36:55.791Z,243.10
2018-10-18T06:37:55.800Z,166.70
2018-10-18T06:38:55.854Z,202.70
2018-10-18T06:39:55.876Z,174.70
2018-10-18T06:40:55.979Z,131.10
2018-10-18T06:41:55.956Z,132.00
2018-10-18T06:42:56.035Z,102.90
2018-10-18T06:43:56.034Z,101.50
2018-10-18T06:44:56.075Z,92.60
2018-10-18T06:45:56.121Z,116.10
2018-10-18T06:46:56.265Z,64.10
2018-10-18T06:47:56.394Z,63.20
2018-10-18T06:48:56.239Z,52.10
2018-10-18T06:49:56.322Z,51.70
2018-10-18T06:50:56.309Z,52.30
2018-10-18T06:51:56.346Z,49.30
2018-10-18T06:52:56.399Z,43.40
2018-10-18T06:53:56.445Z,42.40
2018-10-18T06:54:56.486Z,39.60
2018-10-18T06:55:56.508Z,42.50
2018-10-18T06:56:56.545Z,32.00
2018-10-18T06:57:56.582Z,32.50
2018-10-18T06:58:56.621Z,35.00
2018-10-18T06:59:56.874Z,34.20
2018-10-18T07:00:56.701Z,36.50
2018-10-18T07:01:56.751Z,31.30
2018-10-18T07:02:56.800Z,27.80
2018-10-18T07:03:56.817Z,29.30
2018-10-18T07:04:56.860Z,26.20
2018-10-18T07:05:56.909Z,25.40
2018-10-18T07:06:56.935Z,25.50
2018-10-18T07:07:56.973Z,25.20
2018-10-18T07:08:57.081Z,27.50
2018-10-18T07:09:57.053Z,26.70
2018-10-18T07:10:57.170Z,25.00
2018-10-18T07:11:57.183Z,27.80
2018-10-18T07:12:57.173Z,29.10
2018-10-18T07:13:57.210Z,32.20
2018-10-18T07:14:57.250Z,32.30
2018-10-18T07:15:57.292Z,36.30
2018-10-18T07:16:57.329Z,37.90
2018-10-18T07:17:57.385Z,38.50
2018-10-18T07:18:57.414Z,34.70
2018-10-18T07:19:57.448Z,31.10
2018-10-18T07:20:57.488Z,34.40
2018-10-18T07:21:57.527Z,32.50
2018-10-18T07:22:57.565Z,37.80
2018-10-18T07:23:57.621Z,35.60
2018-10-18T07:24:57.648Z,35.00
2018-10-18T07:25:57.684Z,31.40
2018-10-18T07:26:57.725Z,34.00
2018-10-18T07:27:57.763Z,33.30
2018-10-18T07:28:57.803Z,34.50
2018-10-18T07:29:57.892Z,33.50
2018-10-18T07:30:57.884Z,32.50
2018-10-18T07:31:57.922Z,32.30
2018-10-18T07:32:57.963Z,30.00
2018-10-18T07:33:58.002Z,31.60
2018-10-18T07:34:58.046Z,29.60
2018-10-18T07:35:58.101Z,34.80
2018-10-18T07:36:58.122Z,31.80
2018-10-18T07:37:58.162Z,33.10
2018-10-18T07:38:58.201Z,29.90
2018-10-18T07:39:58.239Z,30.80
2018-10-18T07:40:58.297Z,32.30
2018-10-18T07:41:58.345Z,33.00
2018-10-18T07:42:58.361Z,40.30
2018-10-18T07:43:58.403Z,40.90
2018-10-18T07:44:58.439Z,37.50
2018-10-18T07:45:58.481Z,49.70
2018-10-18T07:46:58.585Z,48.60
2018-10-18T07:47:58.580Z,48.60
2018-10-18T07:48:58.598Z,49.20
2018-10-18T07:49:58.640Z,51.00
2018-10-18T07:50:58.680Z,49.00
2018-10-18T07:51:58.720Z,49.20
2018-10-18T07:52:58.799Z,50.10
2018-10-18T07:53:58.835Z,52.80
2018-10-18T07:54:58.841Z,52.10
2018-10-18T07:55:58.879Z,53.90
2018-10-18T07:56:58.920Z,58.90
2018-10-18T07:57:58.968Z,54.60
2018-10-18T07:58:59.003Z,56.60
2018-10-18T07:59:59.134Z,50.10
2018-10-18T08:00:59.083Z,54.80
2018-10-18T08:01:59.123Z,47.60
2018-10-18T08:02:59.174Z,45.00
2018-10-18T08:03:59.202Z,44.40
2018-10-18T08:04:59.243Z,40.50
2018-10-18T08:05:59.285Z,47.50
2018-10-18T08:06:59.328Z,49.50
2018-10-18T08:07:59.364Z,54.10
2018-10-18T08:08:59.411Z,49.20
2018-10-18T08:09:59.497Z,52.40
2018-10-18T08:10:59.490Z,52.40
2018-10-18T08:11:59.525Z,52.90
2018-10-18T08:12:59.627Z,56.00
2018-10-18T08:13:59.641Z,58.00
2018-10-18T08:14:59.672Z,58.90
2018-10-18T08:15:59.687Z,55.00
2018-10-18T08:16:59.860Z,61.90
2018-10-18T08:17:59.778Z,56.60
2018-10-18T08:18:59.868Z,67.10
2018-10-18T08:19:59.852Z,67.70
2018-10-18T08:20:59.893Z,61.50
2018-10-18T08:21:59.933Z,61.60
2018-10-18T08:22:59.983Z,64.30
2018-10-18T08:24:00.015Z,59.00
2018-10-18T08:25:00.116Z,58.40
2018-10-18T08:26:00.099Z,62.90
2018-10-18T08:27:00.141Z,60.60
2018-10-18T08:28:00.178Z,62.70
2018-10-18T08:29:00.222Z,64.80
2018-10-18T08:30:00.261Z,75.60
2018-10-18T08:31:00.323Z,70.40
2018-10-18T08:32:00.343Z,75.10
2018-10-18T08:33:00.383Z,69.60
2018-10-18T08:34:00.426Z,68.20
2018-10-18T08:35:00.465Z,67.00
2018-10-18T08:36:00.507Z,66.80
2018-10-18T08:37:00.573Z,65.20
2018-10-18T08:38:00.787Z,67.10
2018-10-18T08:39:00.637Z,74.70
2018-10-18T08:40:00.671Z,72.70
2018-10-18T08:41:00.709Z,75.20
2018-10-18T08:42:00.751Z,79.70
2018-10-18T08:43:00.827Z,78.80
2018-10-18T08:44:01.096Z,79.10
2018-10-18T08:45:00.878Z,80.90
2018-10-18T08:46:00.920Z,81.30
2018-10-18T08:47:00.963Z,81.20
2018-10-18T08:48:00.997Z,73.40
2018-10-18T08:49:01.085Z,75.00
2018-10-18T08:50:01.182Z,68.90
2018-10-18T08:51:01.136Z,72.00
2018-10-18T08:52:01.162Z,68.10
2018-10-18T08:53:01.204Z,76.00
2018-10-18T08:54:01.244Z,68.10
2018-10-18T08:55:01.332Z,68.70
2018-10-18T08:56:01.327Z,69.00
2018-10-18T08:57:01.370Z,67.40
2018-10-18T08:58:01.412Z,67.10
2018-10-18T08:59:01.502Z,64.90
2018-10-18T09:00:01.491Z,59.80
2018-10-18T09:01:01.613Z,60.30
2018-10-18T09:02:01.574Z,59.60
2018-10-18T09:03:01.617Z,57.30
2018-10-18T09:04:01.666Z,60.50
2018-10-18T09:05:01.701Z,59.10
2018-10-18T09:06:01.748Z,56.20
2018-10-18T09:07:01.801Z,57.30
2018-10-18T09:08:02.137Z,58.20
2018-10-18T09:09:01.934Z,61.30
2018-10-18T09:10:01.903Z,62.80
2018-10-18T09:11:01.944Z,60.50
2018-10-18T09:12:01.985Z,57.70
2018-10-18T09:13:02.050Z,59.70
2018-10-18T09:14:02.075Z,58.70
2018-10-18T09:15:02.108Z,55.80
2018-10-18T09:16:02.251Z,62.80
2018-10-18T09:17:02.190Z,61.60
2018-10-18T09:18:02.237Z,60.90
2018-10-18T09:19:02.341Z,60.70
2018-10-18T09:20:02.314Z,59.70
2018-10-18T09:21:02.355Z,58.30
2018-10-18T09:22:02.399Z,57.30
2018-10-18T09:23:02.439Z,59.20
2018-10-18T09:24:02.481Z,57.00
2018-10-18T09:25:02.544Z,57.60
2018-10-18T09:26:02.562Z,58.00
2018-10-18T09:27:02.606Z,58.40
2018-10-18T09:28:02.646Z,59.40
2018-10-18T09:29:02.689Z,57.70
2018-10-18T09:30:02.734Z,54.90
2018-10-18T09:31:02.865Z,58.10
2018-10-18T09:32:02.814Z,56.20
2018-10-18T09:33:02.854Z,54.10
2018-10-18T09:34:02.893Z,55.80
2018-10-18T09:35:02.936Z,55.50
2018-10-18T09:36:02.974Z,55.90
2018-10-18T09:37:03.100Z,57.30
2018-10-18T09:38:03.060Z,57.80
2018-10-18T09:39:03.099Z,54.60
2018-10-18T09:40:03.139Z,55.40
2018-10-18T09:41:03.181Z,59.00
2018-10-18T09:42:03.222Z,59.90
2018-10-18T09:43:03.272Z,54.50
2018-10-18T09:44:03.367Z,53.60
2018-10-18T09:45:03.482Z,58.30
2018-10-18T09:46:03.401Z,52.70
2018-10-18T09:47:03.432Z,52.90
2018-10-18T09:48:03.475Z,54.60
2018-10-18T09:49:03.568Z,53.80
2018-10-18T09:50:03.555Z,52.20
2018-10-18T09:51:03.600Z,53.40
2018-10-18T09:52:03.640Z,54.20
2018-10-18T09:53:03.681Z,53.60
2018-10-18T09:54:03.723Z,57.50
2018-10-18T09:55:03.807Z,51.80
2018-10-18T09:56:03.936Z,52.80
2018-10-18T09:57:03.848Z,53.50
2018-10-18T09:58:03.890Z,52.10
2018-10-18T09:59:03.931Z,49.70
2018-10-18T10:00:03.972Z,49.50
2018-10-18T10:01:04.076Z,52.00
2018-10-18T10:02:04.056Z,52.50
2018-10-18T10:03:04.099Z,51.20
2018-10-18T10:04:04.172Z,51.10
2018-10-18T10:05:04.190Z,51.70
2018-10-18T10:06:04.226Z,50.20
2018-10-18T10:07:04.332Z,52.80
2018-10-18T10:08:04.317Z,51.60
2018-10-18T10:09:04.357Z,49.10
2018-10-18T10:10:04.393Z,48.00
2018-10-18T10:11:04.435Z,50.00
2018-10-18T10:12:04.475Z,49.70
2018-10-18T10:13:04.587Z,53.50
2018-10-18T10:14:04.561Z,50.60
2018-10-18T10:15:04.604Z,47.80
2018-10-18T10:16:04.644Z,51.40
2018-10-18T10:17:04.736Z,46.50
2018-10-18T10:18:04.766Z,46.80
2018-10-18T10:19:04.804Z,49.70
2018-10-18T10:20:04.816Z,48.00
2018-10-18T10:21:04.859Z,48.20
2018-10-18T10:22:04.899Z,48.60
2018-10-18T10:23:04.943Z,46.30
2018-10-18T10:24:04.985Z,43.60
2018-10-18T10:25:05.103Z,43.00
2018-10-18T10:26:05.070Z,43.90
2018-10-18T10:27:05.114Z,44.30
2018-10-18T10:28:05.165Z,40.20
2018-10-18T10:29:05.198Z,45.00
2018-10-18T10:30:05.272Z,43.60
2018-10-18T10:31:05.425Z,42.60
2018-10-18T10:32:05.330Z,43.40
2018-10-18T10:33:05.551Z,43.30
2018-10-18T10:34:05.420Z,44.90
2018-10-18T10:35:05.498Z,42.20
2018-10-18T10:36:05.498Z,46.20
2018-10-18T10:37:05.596Z,42.90
2018-10-18T10:38:05.592Z,42.00
2018-10-18T10:39:05.653Z,45.40
2018-10-18T10:40:05.684Z,48.20
2018-10-18T10:41:05.801Z,48.50
2018-10-18T10:42:05.779Z,49.40
2018-10-18T10:43:05.922Z,46.50
2018-10-18T10:44:05.859Z,43.80
2018-10-18T10:45:05.895Z,44.40
2018-10-18T10:46:06.004Z,44.70
2018-10-18T10:47:05.983Z,45.20
2018-10-18T10:48:06.106Z,46.30
2018-10-18T10:49:06.144Z,47.40
2018-10-18T10:50:06.151Z,44.60
2018-10-18T10:51:06.224Z,47.80
2018-10-18T10:52:06.265Z,48.00
2018-10-18T10:53:06.243Z,47.70
2018-10-18T10:54:06.400Z,44.90
2018-10-18T10:55:06.326Z,48.70
2018-10-18T10:56:06.470Z,45.00
2018-10-18T10:57:06.469Z,47.60
2018-10-18T10:58:06.529Z,50.20
2018-10-18T10:59:06.638Z,47.40
2018-10-18T11:00:06.568Z,48.40
2018-10-18T11:01:06.585Z,47.40
2018-10-18T11:02:06.718Z,48.70
2018-10-18T11:03:06.695Z,44.20
2018-10-18T11:04:06.715Z,47.00
2018-10-18T11:05:06.765Z,45.70
2018-10-18T11:06:06.900Z,47.00
2018-10-18T11:07:06.846Z,45.50
2018-10-18T11:08:06.950Z,45.90
2018-10-18T11:09:07.043Z,46.80
2018-10-18T11:10:06.976Z,47.40
2018-10-18T11:11:07.020Z,46.60
2018-10-18T11:12:07.161Z,49.30
2018-10-18T11:13:07.105Z,49.60
2018-10-18T11:14:07.230Z,49.80
2018-10-18T11:15:07.222Z,50.10
2018-10-18T11:16:07.235Z,50.70
2018-10-18T11:17:07.334Z,45.90
2018-10-18T11:18:07.355Z,47.20
2018-10-18T11:19:07.369Z,47.20
2018-10-18T11:20:07.488Z,47.00
2018-10-18T11:21:07.542Z,41.10
2018-10-18T11:22:07.548Z,48.80
2018-10-18T11:23:07.538Z,48.60
2018-10-18T11:24:07.655Z,46.90
2018-10-18T11:25:07.625Z,43.80
2018-10-18T11:26:07.747Z,46.00
2018-10-18T11:27:07.749Z,42.40
2018-10-18T11:28:07.755Z,41.60
2018-10-18T11:29:07.801Z,46.40
2018-10-18T11:30:07.961Z,46.20
2018-10-18T11:31:07.885Z,43.50
2018-10-18T11:32:08.038Z,46.00
2018-10-18T11:33:08.040Z,43.20
2018-10-18T11:34:08.015Z,44.80
2018-10-18T11:35:08.066Z,43.10
2018-10-18T11:36:08.146Z,43.40
2018-10-18T11:37:08.141Z,45.10
2018-10-18T11:38:08.264Z,46.00
2018-10-18T11:39:08.231Z,42.50
2018-10-18T11:40:08.275Z,44.40
2018-10-18T11:41:08.318Z,45.60
2018-10-18T11:42:08.418Z,43.20
2018-10-18T11:43:08.402Z,45.80
2018-10-18T11:44:08.532Z,44.50
2018-10-18T11:45:08.489Z,45.70
2018-10-18T11:46:08.532Z,42.40
2018-10-18T11:47:08.575Z,43.20
2018-10-18T11:48:08.712Z,44.50
2018-10-18T11:49:08.906Z,47.30
2018-10-18T11:50:08.810Z,44.90
2018-10-18T11:51:08.749Z,43.30
2018-10-18T11:52:08.888Z,42.40
2018-10-18T11:53:08.836Z,41.60
2018-10-18T11:54:08.937Z,43.30
2018-10-18T11:55:08.923Z,42.40
2018-10-18T11:56:09.044Z,43.80
2018-10-18T11:57:09.027Z,43.00
2018-10-18T11:58:09.050Z,39.30
2018-10-18T11:59:09.208Z,44.70
2018-10-18T12:00:09.144Z,43.30
2018-10-18T12:01:09.233Z,43.10
2018-10-18T12:02:09.378Z,35.70
2018-10-18T12:03:09.266Z,36.80
2018-10-18T12:04:09.309Z,34.70
2018-10-18T12:05:09.439Z,40.40
2018-10-18T12:06:09.423Z,37.50
2018-10-18T12:07:09.439Z,38.00
2018-10-18T12:08:09.546Z,36.10
2018-10-18T12:09:09.524Z,36.40
2018-10-18T12:10:09.569Z,34.40
2018-10-18T12:11:09.715Z,35.30
2018-10-18T12:12:09.661Z,33.00
2018-10-18T12:13:09.698Z,34.70
2018-10-18T12:14:09.844Z,33.50
2018-10-18T12:15:09.785Z,32.80
2018-10-18T12:16:09.829Z,32.60
2018-10-18T12:17:09.967Z,32.40
2018-10-18T12:18:09.916Z,30.50
2018-10-18T12:19:10.070Z,34.40
2018-10-18T12:20:10.056Z,29.20
2018-10-18T12:21:10.046Z,28.40
2018-10-18T12:22:10.090Z,28.20
2018-10-18T12:23:10.219Z,36.90
2018-10-18T12:24:10.176Z,40.20
2018-10-18T12:25:10.221Z,43.40
2018-10-18T12:26:10.403Z,39.10
2018-10-18T12:27:10.308Z,40.70
2018-10-18T12:28:10.359Z,42.00
2018-10-18T12:29:10.429Z,38.50
2018-10-18T12:30:10.438Z,40.20
2018-10-18T12:31:10.481Z,39.50
2018-10-18T12:32:10.632Z,38.90
2018-10-18T12:33:10.571Z,39.90
2018-10-18T12:34:10.617Z,39.30
2018-10-18T12:35:10.677Z,37.90
2018-10-18T12:36:10.705Z,40.00
2018-10-18T12:37:10.745Z,39.80
2018-10-18T12:38:10.868Z,40.40
2018-10-18T12:39:10.854Z,39.50
2018-10-18T12:40:10.895Z,37.70
2018-10-18T12:41:11.123Z,36.70
2018-10-18T12:42:10.964Z,37.10
2018-10-18T12:43:11.009Z,39.20